Time,TemperatureF,DewpointF,PressureIn,WindDirection,WindDirectionDegrees,WindSpeedMPH,WindSpeedGustMPH,Humidity,HourlyPrecipIn,Conditions,Clouds,dailyrainin,SoftwareType,DateUTC
2013-05-22 00:14:00,72.0,64.0,29.74,SSW,200,7.0,9.0,76,0.00,,,0.00,weatherlink.com 1.10,2013-05-22 04:14:00,
2013-05-22 00:29:00,71.5,64.0,29.75,SW,228,4.0,7.0,77,0.00,,,0.00,weatherlink.com 1.10,2013-05-22 04:29:00,
2013-05-22 00:46:00,71.0,64.0,29.75,SSW,200,2.0,7.0,78,0.00,,,0.00,weatherlink.com 1.10,2013-05-22 04:46:00,
2013-05-22 01:00:00,70.8,64.0,29.75,SSW,202,3.0,8.0,78,0.00,,,0.00,weatherlink.com 1.10,2013-05-22 05:00:00,
2013-05-22 01:16:00,70.5,63.0,29.74,SW,217,6.0,10.0,78,0.00,,,0.00,weatherlink.com 1.10,2013-05-22 05:16:00,
2013-05-22 01:31:00,70.6,63.0,29.74,SSW,205,6.0,12.0,78,0.00,,,0.00,weatherlink.com 1.10,2013-05-22 05:31:00,
2013-05-22 01:45:00,70.5,63.0,29.73,SW,233,4.0,10.0,78,0.00,,,0.00,weatherlink.com 1.10,2013-05-22 05:45:00,
2013-05-22 02:00:00,70.3,64.0,29.73,SSW,209,5.0,8.0,79,0.00,,,0.00,weatherlink.com 1.10,2013-05-22 06:00:00,
2013-05-22 02:17:00,70.2,64.0,29.73,SW,221,4.0,7.0,80,0.00,,,0.00,weatherlink.com 1.10,2013-05-22 06:17:00,
2013-05-22 02:32:00,70.1,64.0,29.73,SSW,204,3.0,9.0,80,0.00,,,0.00,weatherlink.com 1.10,2013-05-22 06:32:00,
2013-05-22 02:47:00,70.1,64.0,29.73,SSW,195,7.0,7.0,81,0.00,,,0.00,weatherlink.com 1.10,2013-05-22 06:47:00,
2013-05-22 03:01:00,70.2,64.0,29.73,SSW,192,3.0,11.0,81,0.00,,,0.00,weatherlink.com 1.10,2013-05-22 07:01:00,
2013-05-22 03:17:00,70.2,65.0,29.72,SSW,198,4.0,9.0,82,0.00,,,0.00,weatherlink.com 1.10,2013-05-22 07:17:00,
2013-05-22 03:32:00,70.1,65.0,29.72,SSW,197,4.0,9.0,83,0.00,,,0.00,weatherlink.com 1.10,2013-05-22 07:32:00,
2013-05-22 03:47:00,70.0,65.0,29.72,SSW,201,3.0,11.0,84,0.00,,,0.00,weatherlink.com 1.10,2013-05-22 07:47:00,
2013-05-22 04:02:00,69.7,65.0,29.71,SSW,205,7.0,16.0,84,0.00,,,0.00,weatherlink.com 1.10,2013-05-22 08:02:00,
2013-05-22 04:18:00,69.7,65.0,29.72,SSW,207,5.0,13.0,85,0.00,,,0.00,weatherlink.com 1.10,2013-05-22 08:18:00,
2013-05-22 04:33:00,69.5,65.0,29.72,South,182,6.0,11.0,85,0.00,,,0.00,weatherlink.com 1.10,2013-05-22 08:33:00,
2013-05-22 04:48:00,69.4,65.0,29.72,SW,231,6.0,12.0,85,0.00,,,0.00,weatherlink.com 1.10,2013-05-22 08:48:00,
2013-05-22 05:04:00,69.0,64.0,29.71,South,181,6.0,14.0,84,0.00,,,0.00,weatherlink.com 1.10,2013-05-22 09:04:00,
2013-05-22 05:19:00,68.8,64.0,29.71,SW,217,5.0,15.0,85,0.00,,,0.00,weatherlink.com 1.10,2013-05-22 09:19:00,
2013-05-22 05:34:00,68.6,64.0,29.72,SW,215,7.0,14.0,85,0.00,,,0.00,weatherlink.com 1.10,2013-05-22 09:34:00,
2013-05-22 05:49:00,68.4,63.0,29.72,SSW,195,6.0,15.0,84,0.00,,,0.00,weatherlink.com 1.10,2013-05-22 09:49:00,
2013-05-22 06:06:00,68.3,63.0,29.71,SW,227,4.0,13.0,84,0.00,,,0.00,weatherlink.com 1.10,2013-05-22 10:06:00,
2013-05-22 06:20:00,68.3,63.0,29.71,SSW,208,7.0,10.0,84,0.00,,,0.00,weatherlink.com 1.10,2013-05-22 10:20:00,
2013-05-22 06:35:00,68.3,63.0,29.71,SW,225,7.0,11.0,84,0.00,,,0.00,weatherlink.com 1.10,2013-05-22 10:35:00,
2013-05-22 06:52:00,68.4,63.0,29.72,SSW,207,5.0,10.0,84,0.00,,,0.00,weatherlink.com 1.10,2013-05-22 10:52:00,
2013-05-22 07:07:00,68.2,64.0,29.72,SSW,207,4.0,10.0,87,0.00,,,0.00,weatherlink.com 1.10,2013-05-22 11:07:00,
2013-05-22 07:22:00,68.0,64.0,29.73,SSW,195,3.0,9.0,88,0.00,,,0.00,weatherlink.com 1.10,2013-05-22 11:22:00,
2013-05-22 07:37:00,68.1,65.0,29.73,SSW,199,7.0,11.0,88,0.00,,,0.00,weatherlink.com 1.10,2013-05-22 11:37:00,
2013-05-22 07:52:00,68.2,65.0,29.73,SSW,201,6.0,13.0,88,0.00,,,0.00,weatherlink.com 1.10,2013-05-22 11:52:00,
2013-05-22 08:07:00,68.3,65.0,29.72,SSW,200,6.0,12.0,88,0.00,,,0.00,weatherlink.com 1.10,2013-05-22 12:07:00,
2013-05-22 08:22:00,68.4,64.0,29.71,SSW,200,9.0,11.0,87,0.00,,,0.00,weatherlink.com 1.10,2013-05-22 12:22:00,
2013-05-22 08:37:00,69.3,65.0,29.71,SW,228,8.0,13.0,86,0.00,,,0.00,weatherlink.com 1.10,2013-05-22 12:37:00,
2013-05-22 08:52:00,69.6,66.0,29.72,SSW,205,8.0,12.0,87,0.00,,,0.00,weatherlink.com 1.10,2013-05-22 12:52:00,
2013-05-22 09:08:00,69.2,65.0,29.72,SSW,208,7.0,13.0,86,0.00,,,0.00,weatherlink.com 1.10,2013-05-22 13:08:00,
2013-05-22 09:23:00,69.3,64.0,29.72,WSW,248,8.0,14.0,84,0.00,,,0.00,weatherlink.com 1.10,2013-05-22 13:23:00,
2013-05-22 09:38:00,69.2,64.0,29.72,SW,232,9.0,15.0,84,0.00,,,0.00,weatherlink.com 1.10,2013-05-22 13:38:00,
2013-05-22 09:57:00,68.0,64.0,29.71,South,188,10.0,13.0,88,0.00,,,0.00,weatherlink.com 1.10,2013-05-22 13:57:00,
2013-05-22 10:09:00,67.1,65.0,29.70,South,182,2.0,11.0,91,0.00,,,0.00,weatherlink.com 1.10,2013-05-22 14:09:00,
2013-05-22 10:24:00,66.5,64.0,29.71,South,176,2.0,12.0,91,0.00,,,0.00,weatherlink.com 1.10,2013-05-22 14:24:00,
2013-05-22 10:40:00,66.6,64.0,29.70,SSW,213,5.0,11.0,91,0.00,,,0.00,weatherlink.com 1.10,2013-05-22 14:40:00,
2013-05-22 10:55:00,67.4,64.0,29.70,SSE,166,3.0,12.0,89,0.00,,,0.00,weatherlink.com 1.10,2013-05-22 14:55:00,
2013-05-22 11:10:00,68.9,65.0,29.70,South,188,5.0,14.0,86,0.00,,,0.00,weatherlink.com 1.10,2013-05-22 15:10:00,
2013-05-22 11:25:00,70.5,64.0,29.71,South,185,14.0,17.0,81,0.00,,,0.00,weatherlink.com 1.10,2013-05-22 15:25:00,
2013-05-22 11:42:00,71.3,65.0,29.71,SSW,201,5.0,17.0,81,0.00,,,0.00,weatherlink.com 1.10,2013-05-22 15:42:00,
2013-05-22 11:57:00,72.7,65.0,29.71,South,188,13.0,18.0,77,0.00,,,0.00,weatherlink.com 1.10,2013-05-22 15:57:00,
2013-05-22 12:12:00,73.2,64.0,29.71,SSW,192,11.0,17.0,73,0.00,,,0.00,weatherlink.com 1.10,2013-05-22 16:12:00,
2013-05-22 12:27:00,74.3,64.0,29.71,South,177,6.0,18.0,70,0.00,,,0.00,weatherlink.com 1.10,2013-05-22 16:27:00,
2013-05-22 12:42:00,75.4,64.0,29.71,SSW,193,8.0,16.0,68,0.00,,,0.00,weatherlink.com 1.10,2013-05-22 16:42:00,
2013-05-22 12:57:00,75.3,64.0,29.70,South,178,10.0,23.0,69,0.00,,,0.00,weatherlink.com 1.10,2013-05-22 16:57:00,
2013-05-22 13:12:00,73.7,63.0,29.71,WSW,245,9.0,19.0,69,0.00,,,0.00,weatherlink.com 1.10,2013-05-22 17:12:00,
2013-05-22 13:27:00,73.5,65.0,29.70,SW,226,4.0,18.0,75,0.00,,,0.00,weatherlink.com 1.10,2013-05-22 17:27:00,
2013-05-22 13:43:00,74.7,65.0,29.69,SSE,154,7.0,16.0,71,0.00,,,0.00,weatherlink.com 1.10,2013-05-22 17:43:00,
2013-05-22 13:58:00,74.5,65.0,29.69,South,175,3.0,19.0,73,0.00,,,0.00,weatherlink.com 1.10,2013-05-22 17:58:00,
2013-05-22 14:13:00,73.6,64.0,29.69,SSW,205,10.0,15.0,73,0.00,,,0.00,weatherlink.com 1.10,2013-05-22 18:13:00,
2013-05-22 14:29:00,73.8,64.0,29.70,WNW,295,8.0,24.0,71,0.00,,,0.00,weatherlink.com 1.10,2013-05-22 18:29:00,
2013-05-22 14:44:00,73.7,65.0,29.70,WSW,255,12.0,22.0,74,0.00,,,0.00,weatherlink.com 1.10,2013-05-22 18:44:00,
2013-05-22 14:59:00,74.1,65.0,29.70,SSW,198,12.0,21.0,72,0.00,,,0.00,weatherlink.com 1.10,2013-05-22 18:59:00,
2013-05-22 15:14:00,74.3,63.0,29.70,SW,215,12.0,23.0,69,0.00,,,0.00,weatherlink.com 1.10,2013-05-22 19:14:00,
2013-05-22 15:29:00,74.9,63.0,29.70,WSW,248,12.0,30.0,66,0.00,,,0.00,weatherlink.com 1.10,2013-05-22 19:29:00,
2013-05-22 15:45:00,74.3,63.0,29.69,West,265,7.0,23.0,67,0.00,,,0.00,weatherlink.com 1.10,2013-05-22 19:45:00,
2013-05-22 16:00:00,74.4,61.0,29.69,SSW,204,9.0,22.0,63,0.00,,,0.00,weatherlink.com 1.10,2013-05-22 20:00:00,
2013-05-22 16:17:00,74.5,61.0,29.69,WSW,243,5.0,22.0,64,0.00,,,0.00,weatherlink.com 1.10,2013-05-22 20:17:00,
2013-05-22 16:30:00,74.4,62.0,29.68,SSW,207,9.0,23.0,66,0.00,,,0.00,weatherlink.com 1.10,2013-05-22 20:30:00,
2013-05-22 16:47:00,75.5,63.0,29.67,SW,220,13.0,18.0,66,0.00,,,0.00,weatherlink.com 1.10,2013-05-22 20:47:00,
2013-05-22 17:02:00,75.3,62.0,29.67,SSW,211,9.0,17.0,64,0.00,,,0.00,weatherlink.com 1.10,2013-05-22 21:02:00,
2013-05-22 17:17:00,74.2,62.0,29.67,WSW,244,9.0,19.0,66,0.00,,,0.00,weatherlink.com 1.10,2013-05-22 21:17:00,
2013-05-22 17:32:00,74.2,63.0,29.66,SSW,210,7.0,15.0,67,0.00,,,0.00,weatherlink.com 1.10,2013-05-22 21:32:00,
2013-05-22 17:47:00,73.7,63.0,29.66,SW,228,4.0,17.0,69,0.00,,,0.00,weatherlink.com 1.10,2013-05-22 21:47:00,
2013-05-22 18:03:00,69.4,62.0,29.67,SW,232,7.0,22.0,78,0.08,,,0.08,weatherlink.com 1.10,2013-05-22 22:03:00,
2013-05-22 18:17:00,68.5,63.0,29.68,West,275,9.0,16.0,82,0.08,,,0.08,weatherlink.com 1.10,2013-05-22 22:17:00,
2013-05-22 18:33:00,69.8,59.0,29.68,SW,233,8.0,21.0,69,0.08,,,0.08,weatherlink.com 1.10,2013-05-22 22:33:00,
2013-05-22 18:48:00,69.7,58.0,29.68,West,262,12.0,19.0,67,0.08,,,0.08,weatherlink.com 1.10,2013-05-22 22:48:00,
2013-05-22 19:03:00,69.8,59.0,29.69,SW,215,2.0,11.0,68,0.00,,,0.08,weatherlink.com 1.10,2013-05-22 23:03:00,
2013-05-22 19:18:00,71.3,60.0,29.69,West,269,2.0,12.0,67,0.00,,,0.08,weatherlink.com 1.10,2013-05-22 23:18:00,
2013-05-22 19:34:00,70.8,59.0,29.70,WNW,286,0.0,11.0,67,0.00,,,0.08,weatherlink.com 1.10,2013-05-22 23:34:00,
2013-05-22 19:49:00,70.4,60.0,29.70,WNW,289,3.0,7.0,69,0.00,,,0.08,weatherlink.com 1.10,2013-05-22 23:49:00,
2013-05-22 20:04:00,70.4,60.0,29.70,WSW,251,2.0,9.0,70,0.00,,,0.08,weatherlink.com 1.10,2013-05-23 00:04:00,
2013-05-22 20:20:00,70.3,60.0,29.71,SW,231,4.0,7.0,71,0.00,,,0.08,weatherlink.com 1.10,2013-05-23 00:20:00,
2013-05-22 20:35:00,69.7,61.0,29.71,West,275,2.0,7.0,73,0.00,,,0.08,weatherlink.com 1.10,2013-05-23 00:35:00,
2013-05-22 20:50:00,68.6,62.0,29.70,West,275,0.0,2.0,79,0.00,,,0.08,weatherlink.com 1.10,2013-05-23 00:50:00,
2013-05-22 21:05:00,67.0,61.0,29.71,West,275,0.0,0.0,81,0.00,,,0.08,weatherlink.com 1.10,2013-05-23 01:05:00,
2013-05-22 21:22:00,65.5,62.0,29.72,West,275,0.0,0.0,87,0.00,,,0.08,weatherlink.com 1.10,2013-05-23 01:22:00,
2013-05-22 21:37:00,65.0,62.0,29.72,South,175,4.0,4.0,89,0.00,,,0.08,weatherlink.com 1.10,2013-05-23 01:37:00,
2013-05-22 21:52:00,65.5,61.0,29.73,South,189,3.0,5.0,86,0.00,,,0.08,weatherlink.com 1.10,2013-05-23 01:52:00,
2013-05-22 22:07:00,65.7,60.0,29.73,SW,229,3.0,6.0,83,0.00,,,0.08,weatherlink.com 1.10,2013-05-23 02:07:00,
2013-05-22 22:22:00,65.5,61.0,29.74,SSW,208,1.0,6.0,85,0.01,,,0.09,weatherlink.com 1.10,2013-05-23 02:22:00,
2013-05-22 22:37:00,65.0,61.0,29.74,SSW,208,0.0,5.0,87,0.01,,,0.09,weatherlink.com 1.10,2013-05-23 02:37:00,
2013-05-22 22:52:00,64.5,61.0,29.74,SSW,208,0.0,0.0,87,0.01,,,0.09,weatherlink.com 1.10,2013-05-23 02:52:00,
2013-05-22 23:22:00,63.8,61.0,29.75,SSW,208,0.0,0.0,91,0.00,,,0.09,weatherlink.com 1.10,2013-05-23 03:22:00,
2013-05-22 23:38:00,63.5,61.0,29.74,SSW,208,0.0,4.0,91,0.00,,,0.09,weatherlink.com 1.10,2013-05-23 03:38:00,
2013-05-22 23:53:00,63.1,61.0,29.75,SSW,208,0.0,3.0,93,0.00,,,0.09,weatherlink.com 1.10,2013-05-23 03:53:00,